Aviation Digital Data Service (ADDS)

Output produced by METARs form (0944 UTC 20 September 2019)
found at http://aviationweather.gov/metar/data/
 
KASE 200520Z 2006/2106 16008KT P6SM SKC 
     FM201700 19015G25KT P6SM BKN100 
     FM202000 22020G32KT P6SM FEW090 SCT100 
     FM202300 24015G30KT P6SM VCSH FEW090 SCT100 
     FM210200 24015KT P6SM FEW250